Time;durP1;ratioP1;P1;durP2;ratioP2;P2;SDS_P1;SDS_P2;PMS_P1;PMS_P2;Temp;Humidity;BMP_temperature;BMP_pressure;BME280_temperature;BME280_humidity;BME280_pressure;Samples;Min_cycle;Max_cycle;Signal;HPM_P1;HPM_P2
2021/10/06 00:01:16;;;;;;;;;;;17.70;66.70;;;;;;20721278;28;81665;-68
2021/10/06 00:11:18;;;;;;;1.70;0.70;;;17.60;66.80;;;;;;20757382;28;80600;-69
2021/10/06 00:21:20;;;;;;;1.83;0.60;;;17.50;67.00;;;;;;20720010;28;79940;-69
2021/10/06 00:31:22;;;;;;;3.73;1.07;;;17.40;67.50;;;;;;20718269;28;81891;-69
2021/10/06 00:41:24;;;;;;;1.70;0.70;;;17.40;67.80;;;;;;20717740;28;81725;-70
2021/10/06 00:51:26;;;;;;;1.73;0.83;;;17.40;68.20;;;;;;20718701;28;80796;-70
2021/10/06 01:01:29;;;;;;;2.80;1.27;;;17.20;68.70;;;;;;20718340;28;81925;-69
2021/10/06 01:11:31;;;;;;;1.97;0.83;;;17.00;69.30;;;;;;20717038;28;80903;-68
2021/10/06 01:21:33;;;;;;;2.75;0.90;;;17.00;69.80;;;;;;20715648;28;80758;-68
2021/10/06 01:31:37;;;;;;;2.42;0.60;;;16.80;70.20;;;;;;20715389;28;80762;-67
2021/10/06 01:41:43;;;;;;;2.35;0.70;;;16.70;70.40;;;;;;20722810;28;80156;-68
2021/10/06 01:51:50;;;;;;;4.60;1.95;;;16.80;70.50;;;;;;20721259;28;81450;-70
2021/10/06 02:01:54;;;;;;;2.80;1.90;;;16.70;70.70;;;;;;20726942;28;80533;-68
2021/10/06 02:11:56;;;;;;;2.87;1.20;;;16.60;70.70;;;;;;20727844;28;80795;-69
2021/10/06 02:21:58;;;;;;;3.37;1.20;;;16.50;71.00;;;;;;20720265;28;81237;-69
2021/10/06 02:32:01;;;;;;;2.63;1.10;;;16.40;71.20;;;;;;20719299;28;80449;-70
2021/10/06 02:42:05;;;;;;;2.53;0.95;;;16.20;71.80;;;;;;20725579;28;81960;-69
2021/10/06 02:52:08;;;;;;;2.47;0.90;;;16.10;72.20;;;;;;20725136;28;80745;-69
2021/10/06 03:02:10;;;;;;;5.28;1.75;;;16.10;72.40;;;;;;20724843;28;80589;-68
2021/10/06 03:12:14;;;;;;;2.85;0.90;;;16.00;72.80;;;;;;20719989;28;80594;-68
2021/10/06 03:22:18;;;;;;;3.20;1.48;;;15.90;73.10;;;;;;20718301;28;80446;-69
2021/10/06 03:32:21;;;;;;;4.20;1.30;;;15.90;73.30;;;;;;20720268;28;80380;-69
2021/10/06 03:42:24;;;;;;;4.07;1.20;;;15.80;73.40;;;;;;20713551;28;81110;-67
2021/10/06 03:52:26;;;;;;;3.47;0.97;;;15.70;73.50;;;;;;20721163;28;80603;-68
2021/10/06 04:02:30;;;;;;;3.03;1.10;;;15.70;73.70;;;;;;20721152;28;80509;-68
2021/10/06 04:12:35;;;;;;;2.65;1.02;;;15.60;73.80;;;;;;20721065;28;82060;-68
2021/10/06 04:22:38;;;;;;;2.65;1.23;;;15.50;74.10;;;;;;20718859;28;81865;-68
2021/10/06 04:32:42;;;;;;;3.73;1.10;;;15.50;74.30;;;;;;20718290;28;80808;-68
2021/10/06 04:42:46;;;;;;;7.03;1.77;;;15.40;74.40;;;;;;20719213;28;81091;-68
2021/10/06 04:52:48;;;;;;;4.17;2.00;;;15.40;74.70;;;;;;20718035;28;80581;-67
2021/10/06 05:02:50;;;;;;;7.25;2.47;;;15.30;74.80;;;;;;20717998;28;80782;-68
2021/10/06 05:12:53;;;;;;;4.37;1.53;;;15.30;75.00;;;;;;20721180;28;80973;-69
2021/10/06 05:22:55;;;;;;;4.13;1.57;;;15.20;74.50;;;;;;20717008;28;81387;-68
2021/10/06 05:32:57;;;;;;;6.13;1.63;;;15.10;74.30;;;;;;20717665;28;81453;-69
2021/10/06 05:43:00;;;;;;;3.93;1.50;;;14.90;74.40;;;;;;20714855;28;80952;-69
2021/10/06 05:53:04;;;;;;;2.10;1.05;;;14.80;74.60;;;;;;20714029;28;81186;-67
2021/10/06 06:03:12;;;;;;;4.57;1.70;;;14.80;74.60;;;;;;20708003;28;82451;-69
2021/10/06 06:13:14;;;;;;;7.35;1.40;;;14.70;74.70;;;;;;20712603;28;81989;-61
2021/10/06 06:23:16;;;;;;;3.83;1.25;;;14.60;74.70;;;;;;20707495;28;81847;-60
2021/10/06 06:43:29;;;;;;;3.88;1.52;;;14.50;74.60;;;;;;20880840;28;76006;-61
2021/10/06 06:53:32;;;;;;;;;;;14.70;74.50;;;;;;20857060;27;81689;-62
2021/10/06 07:03:34;;;;;;;8.20;1.40;;;14.90;74.20;;;;;;20880327;28;80863;-62
2021/10/06 07:13:37;;;;;;;6.73;1.73;;;14.90;73.50;;;;;;20855065;28;81515;-61
2021/10/06 07:23:39;;;;;;;6.05;2.05;;;15.20;72.80;;;;;;20853824;28;81127;-60
2021/10/06 07:33:44;;;;;;;3.08;1.75;;;15.50;72.10;;;;;;20853752;28;80889;-63
2021/10/06 07:43:46;;;;;;;5.18;1.95;;;15.80;71.10;;;;;;20854470;27;81885;-62
2021/10/06 07:53:48;;;;;;;6.17;2.40;;;16.20;70.30;;;;;;20798960;28;81258;-60
2021/10/06 08:03:51;;;;;;;11.10;3.07;;;16.60;69.00;;;;;;20793149;28;81479;-61
2021/10/06 08:13:55;;;;;;;14.88;4.50;;;17.10;68.00;;;;;;20795033;28;80399;-62
2021/10/06 08:23:57;;;;;;;8.70;2.03;;;17.60;67.00;;;;;;20795089;28;81878;-61
2021/10/06 08:34:02;;;;;;;8.40;1.70;;;17.90;65.80;;;;;;20798618;28;82370;-61
2021/10/06 08:44:05;;;;;;;9.57;1.53;;;18.40;63.80;;;;;;20793991;28;81177;-62
2021/10/06 08:54:10;;;;;;;2.00;1.10;;;18.90;61.70;;;;;;20796344;28;81831;-61
2021/10/06 09:04:13;;;;;;;7.00;1.30;;;19.40;59.40;;;;;;20794224;28;81483;-63
2021/10/06 09:14:17;;;;;;;4.30;1.65;;;19.90;57.40;;;;;;20794121;28;82006;-61
2021/10/06 09:24:20;;;;;;;4.00;1.67;;;20.70;55.60;;;;;;20789726;28;81727;-61
2021/10/06 09:34:23;;;;;;;7.10;2.00;;;21.50;53.40;;;;;;20793601;28;81301;-62
2021/10/06 09:44:27;;;;;;;6.43;1.48;;;23.70;47.60;;;;;;20787565;28;80972;-62
2021/10/06 09:54:30;;;;;;;3.53;1.05;;;24.80;44.30;;;;;;20789201;28;81822;-63
2021/10/06 10:04:32;;;;;;;;;;;25.20;43.10;;;;;;20789622;28;81594;-63
2021/10/06 10:14:34;;;;;;;6.68;2.13;;;26.60;41.40;;;;;;20812437;28;82906;-63
2021/10/06 10:24:48;;;;;;;2.33;0.85;;;29.20;35.70;;;;;;20787098;28;81186;-61
2021/10/06 10:35:06;;;;;;;2.90;0.80;;;31.80;31.40;;;;;;20787448;28;81653;-61
2021/10/06 10:45:36;;;;;;;3.80;1.70;;;34.90;27.40;;;;;;20784164;28;81682;-60
2021/10/06 10:55:52;;;;;;;3.30;1.20;;;37.60;25.50;;;;;;20780451;28;81836;-60
2021/10/06 11:05:57;;;;;;;4.93;1.02;;;39.60;22.80;;;;;;20785922;28;81629;-60
2021/10/06 11:16:00;;;;;;;2.00;0.88;;;40.00;22.10;;;;;;20788313;28;81788;-61
2021/10/06 11:26:12;;;;;;;3.35;0.90;;;37.50;24.70;;;;;;20792784;28;81876;-61
2021/10/06 11:36:21;;;;;;;2.42;0.80;;;39.90;22.50;;;;;;20801167;28;83695;-60
2021/10/06 11:46:33;;;;;;;6.23;0.67;;;40.50;21.40;;;;;;20797260;28;81741;-60
2021/10/06 11:56:36;;;;;;;6.45;1.60;;;34.80;26.90;;;;;;20794300;28;81692;-64
2021/10/06 12:06:41;;;;;;;4.20;0.90;;;35.90;25.70;;;;;;20799197;28;81751;-62
2021/10/06 12:16:45;;;;;;;4.85;1.55;;;39.20;22.70;;;;;;20798255;28;81145;-63
2021/10/06 12:26:47;;;;;;;4.97;1.45;;;35.80;25.80;;;;;;20794963;28;81140;-61
2021/10/06 12:36:55;;;;;;;3.53;1.17;;;31.30;31.70;;;;;;20799525;28;81962;-64
2021/10/06 12:46:58;;;;;;;7.05;1.40;;;30.90;31.50;;;;;;20807450;28;80590;-75
2021/10/06 12:57:05;;;;;;;3.03;1.30;;;31.80;30.10;;;;;;20795664;28;81724;-74
2021/10/06 13:07:10;;;;;;;3.10;1.38;;;35.30;26.30;;;;;;20798856;28;81583;-75
2021/10/06 13:17:13;;;;;;;4.15;1.00;;;34.70;26.60;;;;;;20797658;28;81097;-77
2021/10/06 13:27:17;;;;;;;2.30;0.90;;;34.60;27.00;;;;;;20782903;28;80809;-79
2021/10/06 13:37:21;;;;;;;3.05;0.90;;;34.40;26.90;;;;;;20798694;28;80207;-75
2021/10/06 13:47:27;;;;;;;1.98;0.70;;;33.00;28.50;;;;;;20798872;28;80934;-79
2021/10/06 13:57:31;;;;;;;2.83;0.75;;;31.40;30.10;;;;;;20796183;28;81834;-72
2021/10/06 14:07:34;;;;;;;3.92;0.90;;;31.30;30.00;;;;;;20778661;28;80232;-74
2021/10/06 14:17:36;;;;;;;4.00;1.40;;;38.50;22.20;;;;;;20743679;28;81771;-75
2021/10/06 14:27:39;;;;;;;1.73;1.10;;;42.40;19.20;;;;;;20713058;28;81879;-79
2021/10/06 14:37:42;;;;;;;1.58;0.52;;;36.60;24.30;;;;;;20709277;28;80415;-76
2021/10/06 14:47:44;;;;;;;3.60;0.88;;;34.90;25.70;;;;;;20714114;28;82056;-75
2021/10/06 14:57:46;;;;;;;3.75;0.70;;;33.60;27.10;;;;;;20714855;28;80478;-74
2021/10/06 15:07:50;;;;;;;4.93;1.20;;;32.20;28.40;;;;;;20736789;28;81550;-77
2021/10/06 15:17:53;;;;;;;3.55;0.80;;;32.60;27.30;;;;;;20756118;28;80501;-76
2021/10/06 15:27:55;;;;;;;1.88;0.60;;;33.20;26.40;;;;;;20810464;28;81832;-71
2021/10/06 15:38:01;;;;;;;1.92;0.90;;;31.40;27.90;;;;;;20741007;28;80569;-69
2021/10/06 15:48:04;;;;;;;6.50;1.45;;;31.40;27.90;;;;;;20728794;28;80493;-72
2021/10/06 15:58:11;;;;;;;4.45;1.75;;;32.00;27.20;;;;;;20769887;28;80903;-69
2021/10/06 16:08:13;;;;;;;4.95;1.30;;;30.60;28.80;;;;;;20792802;28;81062;-72
2021/10/06 16:18:15;;;;;;;13.65;3.30;;;28.60;31.30;;;;;;20745254;28;81843;-71
2021/10/06 16:28:18;;;;;;;1.75;0.80;;;27.70;32.50;;;;;;20782167;28;80984;-70
2021/10/06 16:38:20;;;;;;;6.57;1.70;;;26.70;33.40;;;;;;20800794;28;80775;-69
2021/10/06 16:48:25;;;;;;;2.63;1.00;;;26.20;34.30;;;;;;20790644;28;83409;-71
2021/10/06 16:58:27;;;;;;;5.72;0.95;;;25.60;34.90;;;;;;20807756;28;81733;-71
2021/10/06 17:08:29;;;;;;;4.20;0.90;;;25.30;35.70;;;;;;20804406;28;81859;-70
2021/10/06 17:18:32;;;;;;;4.25;1.20;;;25.00;35.70;;;;;;20803823;28;79878;-72
2021/10/06 17:28:38;;;;;;;3.85;1.70;;;24.70;36.60;;;;;;20790001;28;80555;-72
2021/10/06 17:38:41;;;;;;;3.60;1.33;;;24.40;37.90;;;;;;20788541;28;81155;-70
2021/10/06 17:48:43;;;;;;;5.57;1.30;;;24.00;38.40;;;;;;20771577;28;80785;-70
2021/10/06 17:58:45;;;;;;;4.13;1.33;;;23.50;39.10;;;;;;20731146;28;83441;-71
2021/10/06 18:08:51;;;;;;;6.90;1.98;;;23.20;39.70;;;;;;20717925;28;79940;-70
2021/10/06 18:18:52;;;;;;;10.38;2.28;;;22.90;40.30;;;;;;20719916;28;81839;-71
2021/10/06 18:28:56;;;;;;;6.80;2.90;;;22.50;41.30;;;;;;20728705;28;80850;-70
2021/10/06 18:39:00;;;;;;;17.95;6.25;;;22.30;42.60;;;;;;20736275;28;81160;-70
2021/10/06 18:49:02;;;;;;;7.35;4.10;;;22.00;43.90;;;;;;20729581;28;81391;-71
2021/10/06 18:59:04;;;;;;;11.70;5.00;;;21.80;44.90;;;;;;20717571;28;81824;-72
2021/10/06 19:09:07;;;;;;;10.18;4.30;;;21.60;45.20;;;;;;20717173;28;80743;-70
2021/10/06 19:19:09;;;;;;;9.82;4.20;;;21.30;46.00;;;;;;20717503;28;82344;-70
2021/10/06 19:29:14;;;;;;;9.15;4.43;;;21.10;47.10;;;;;;20716944;28;82180;-72
2021/10/06 19:39:16;;;;;;;22.17;5.10;;;20.90;47.50;;;;;;20715213;28;80721;-72
2021/10/06 19:49:19;;;;;;;11.48;5.88;;;20.80;48.70;;;;;;20739780;28;81056;-71
2021/10/06 19:59:21;;;;;;;18.52;5.35;;;20.70;49.30;;;;;;20770809;27;80896;-71
2021/10/06 20:09:23;;;;;;;11.00;3.75;;;20.60;50.20;;;;;;20736559;28;80236;-71
2021/10/06 20:19:25;;;;;;;13.70;3.13;;;20.40;51.00;;;;;;20738723;28;81921;-70
2021/10/06 20:29:27;;;;;;;8.23;2.60;;;20.20;52.20;;;;;;20739569;28;80958;-70
2021/10/06 20:39:29;;;;;;;9.85;2.85;;;20.00;53.10;;;;;;20726020;28;80766;-72
2021/10/06 20:49:35;;;;;;;10.75;3.08;;;19.90;53.60;;;;;;20725270;28;80959;-72
2021/10/06 20:59:40;;;;;;;8.98;2.75;;;19.80;54.20;;;;;;20723633;28;80850;-71
2021/10/06 21:09:43;;;;;;;8.23;3.83;;;19.50;55.10;;;;;;20737876;28;81902;-73
2021/10/06 21:19:49;;;;;;;15.75;4.38;;;19.40;55.60;;;;;;20741272;28;81102;-71
2021/10/06 21:29:51;;;;;;;17.25;4.32;;;19.10;56.40;;;;;;20733456;28;80126;-72
2021/10/06 21:39:53;;;;;;;;;;;18.90;57.10;;;;;;20721764;28;81604;-71
2021/10/06 21:49:55;;;;;;;8.75;3.72;;;18.70;57.30;;;;;;20754735;28;81837;-72
2021/10/06 21:59:59;;;;;;;11.50;4.72;;;18.60;57.90;;;;;;20719838;28;79991;-71
2021/10/06 22:10:01;;;;;;;7.85;4.18;;;18.40;58.80;;;;;;20718626;28;81252;-70
2021/10/06 22:20:05;;;;;;;5.05;3.05;;;18.30;59.10;;;;;;20718624;28;81835;-71
2021/10/06 22:30:08;;;;;;;8.00;2.33;;;18.20;59.60;;;;;;20756497;28;80714;-71
2021/10/06 22:40:11;;;;;;;5.20;1.92;;;18.00;59.60;;;;;;20716794;28;80549;-70
2021/10/06 22:50:17;;;;;;;6.75;1.73;;;17.80;59.80;;;;;;20717240;28;81672;-70
2021/10/06 23:00:19;;;;;;;3.80;1.88;;;17.70;59.60;;;;;;20716445;28;80802;-70
2021/10/06 23:10:21;;;;;;;6.07;1.70;;;17.50;60.00;;;;;;20729203;28;80842;-69
2021/10/06 23:20:23;;;;;;;8.02;1.77;;;17.40;60.10;;;;;;20721882;28;80993;-70
2021/10/06 23:30:26;;;;;;;2.90;1.52;;;17.30;60.00;;;;;;20730312;28;81986;-70
2021/10/06 23:40:29;;;;;;;2.30;0.90;;;17.30;60.20;;;;;;20727606;28;80525;-69
2021/10/06 23:50:32;;;;;;;7.60;1.60;;;17.00;60.30;;;;;;20723858;28;81242;-69
